createdAt,value
2018-01-08T04:51:48.871Z,32.72
2018-01-08T04:54:15.254Z,36.97
2018-01-08T04:56:42.401Z,37.40
2018-01-08T04:59:08.782Z,36.22
2018-01-08T05:01:35.198Z,36.08
2018-01-08T05:04:01.592Z,37.88
2018-01-08T05:06:27.985Z,37.15
2018-01-08T05:08:54.386Z,37.33
2018-01-08T05:11:21.518Z,34.20
2018-01-08T05:13:47.921Z,37.10
2018-01-08T05:16:14.354Z,36.72
2018-01-08T05:18:40.746Z,35.63
2018-01-08T05:21:07.207Z,38.85
2018-01-08T05:23:33.622Z,39.88
2018-01-08T05:26:00.132Z,36.90
2018-01-08T05:28:27.251Z,38.60
2018-01-08T05:30:53.630Z,39.80
2018-01-08T05:33:20.778Z,36.90
2018-01-08T05:35:47.909Z,38.80
2018-01-08T05:38:14.369Z,38.88
2018-01-08T05:40:40.729Z,40.67
2018-01-08T05:43:07.139Z,43.42
2018-01-08T05:45:33.551Z,40.67
2018-01-08T05:48:00.734Z,39.33
2018-01-08T05:50:27.145Z,39.88
2018-01-08T05:52:54.270Z,42.90
2018-01-08T05:55:20.686Z,41.03
2018-01-08T05:57:47.054Z,37.72
2018-01-08T06:00:14.227Z,42.80
2018-01-08T06:02:41.390Z,40.75
2018-01-08T06:05:07.781Z,38.07
2018-01-08T06:07:34.197Z,40.60
2018-01-08T06:10:00.581Z,41.08
2018-01-08T06:12:26.973Z,39.28
2018-01-08T06:14:53.433Z,38.30
2018-01-08T06:17:20.574Z,41.13
2018-01-08T06:19:47.697Z,42.58
2018-01-08T06:22:14.139Z,41.13
2018-01-08T06:24:40.528Z,41.80
2018-01-08T06:27:06.960Z,44.83
2018-01-08T06:29:33.356Z,41.45
2018-01-08T06:32:00.533Z,39.13
2018-01-08T06:34:27.685Z,44.65
2018-01-08T06:36:54.129Z,41.03
2018-01-08T06:39:23.466Z,38.95
2018-01-08T06:41:50.667Z,40.35
2018-01-08T06:44:17.818Z,43.90
2018-01-08T06:46:44.933Z,41.17
2018-01-08T06:49:11.369Z,40.63
2018-01-08T06:51:37.765Z,36.17
2018-01-08T06:54:04.193Z,39.10
2018-01-08T06:56:30.621Z,40.25
2018-01-08T06:58:57.733Z,37.95
2018-01-08T07:01:24.125Z,38.00
2018-01-08T07:03:50.574Z,36.03
2018-01-08T07:06:16.985Z,36.22
2018-01-08T07:08:43.369Z,34.35
2018-01-08T07:11:09.771Z,34.00
2018-01-08T07:13:36.185Z,35.10
2018-01-08T07:16:02.621Z,30.77
2018-01-08T07:18:29.010Z,36.17
2018-01-08T07:20:55.415Z,34.88
2018-01-08T07:23:21.831Z,33.25
2018-01-08T07:25:48.247Z,30.15
2018-01-08T07:28:14.697Z,33.05
2018-01-08T07:30:41.101Z,32.25
2018-01-08T07:33:08.250Z,30.70
2018-01-08T07:35:35.382Z,31.40
2018-01-08T07:38:01.790Z,31.80
2018-01-08T07:40:28.194Z,30.35
2018-01-08T07:42:54.602Z,30.65
2018-01-08T07:45:21.743Z,31.15
2018-01-08T07:47:48.182Z,26.50
2018-01-08T07:50:14.545Z,29.60
2018-01-08T07:52:40.957Z,27.50
2018-01-08T07:55:08.190Z,27.60
2018-01-08T07:57:34.588Z,28.12
2018-01-08T08:00:01.018Z,28.45
2018-01-08T08:02:27.398Z,28.38
2018-01-08T08:04:53.794Z,27.73
2018-01-08T08:07:20.176Z,29.10
2018-01-08T08:09:46.613Z,27.75
2018-01-08T08:12:13.018Z,26.92
2018-01-08T08:14:39.427Z,27.58
2018-01-08T08:17:05.829Z,30.23
2018-01-08T08:19:32.950Z,32.90
2018-01-08T08:21:59.366Z,31.90
2018-01-08T08:24:25.744Z,32.70
2018-01-08T08:26:52.950Z,32.70
2018-01-08T08:29:19.330Z,34.85
2018-01-08T08:31:46.465Z,34.30
